createdAt,value
2017-08-23T00:00:00.664Z,985.1
2017-08-23T00:01:02.734Z,985.1
2017-08-23T00:02:05.126Z,985.1
2017-08-23T00:03:07.204Z,985.1
2017-08-23T00:04:09.337Z,985.2
2017-08-23T00:05:11.396Z,985.1
2017-08-23T00:06:13.442Z,985.1
2017-08-23T00:07:15.854Z,985.1
2017-08-23T00:08:17.973Z,985.1
2017-08-23T00:09:20.041Z,985.1
2017-08-23T00:10:22.129Z,985.1
2017-08-23T00:11:24.281Z,985.1
2017-08-23T00:12:26.679Z,985.1
2017-08-23T00:13:28.801Z,985.2
2017-08-23T00:14:30.916Z,985.1
2017-08-23T00:15:32.981Z,985.1
2017-08-23T00:16:35.107Z,985.1
2017-08-23T00:17:37.536Z,985.1
2017-08-23T00:18:39.583Z,985
2017-08-23T00:19:41.709Z,985
2017-08-23T00:20:43.788Z,985
2017-08-23T00:21:45.889Z,985.1
2017-08-23T00:22:48.291Z,985.1
2017-08-23T00:23:50.685Z,985.1
2017-08-23T00:24:52.711Z,985.1
2017-08-23T00:25:54.760Z,985.1
2017-08-23T00:26:56.823Z,985
2017-08-23T00:27:59.327Z,985.1
2017-08-23T00:29:01.414Z,985
2017-08-23T00:30:03.516Z,985.1
2017-08-23T00:31:05.517Z,985.1
2017-08-23T00:32:07.535Z,985
2017-08-23T00:33:09.964Z,985.1
2017-08-23T00:34:12.045Z,985.1
2017-08-23T00:35:14.078Z,985.1
2017-08-23T00:36:16.166Z,985.1
2017-08-23T00:37:18.212Z,985.1
2017-08-23T00:38:20.609Z,985.1
2017-08-23T00:39:22.720Z,985.1
2017-08-23T00:40:24.801Z,985.1
2017-08-23T00:41:26.840Z,985.1
2017-08-23T00:42:28.903Z,985.1
2017-08-23T00:43:31.383Z,985.1
2017-08-23T00:44:33.492Z,985
2017-08-23T00:45:35.632Z,985.1
2017-08-23T00:46:37.787Z,985
2017-08-23T00:47:39.813Z,985.1
2017-08-23T00:48:42.237Z,985.1
2017-08-23T00:49:44.356Z,985.1
2017-08-23T00:50:46.422Z,985.1
2017-08-23T00:51:48.694Z,985
2017-08-23T00:52:50.776Z,985.1
2017-08-23T00:53:53.264Z,985
2017-08-23T00:54:55.339Z,985
2017-08-23T00:55:57.412Z,985
2017-08-23T00:56:59.444Z,985
2017-08-23T00:58:01.522Z,985
2017-08-23T00:59:03.928Z,985
2017-08-23T01:00:06.006Z,985
2017-08-23T01:01:08.093Z,985
2017-08-23T01:02:10.270Z,985
2017-08-23T01:03:12.368Z,985
2017-08-23T01:04:14.836Z,985
2017-08-23T01:05:16.956Z,985
2017-08-23T01:06:19.022Z,985
2017-08-23T01:07:21.122Z,984.9
2017-08-23T01:08:23.175Z,984.9
2017-08-23T01:09:25.491Z,984.9
2017-08-23T01:10:27.593Z,984.9
2017-08-23T01:11:29.692Z,984.9
2017-08-23T01:12:31.824Z,984.9
2017-08-23T01:13:33.884Z,984.9
2017-08-23T01:14:36.296Z,984.9
2017-08-23T01:15:38.421Z,984.9
2017-08-23T01:16:40.466Z,984.9
2017-08-23T01:17:42.611Z,984.9
2017-08-23T01:18:44.696Z,984.9
2017-08-23T01:19:47.083Z,984.9
2017-08-23T01:20:49.146Z,984.8
2017-08-23T01:21:51.252Z,984.9
2017-08-23T01:22:53.383Z,984.9
2017-08-23T01:23:55.457Z,984.8
2017-08-23T01:24:57.956Z,984.8
2017-08-23T01:26:00.098Z,984.8
2017-08-23T01:27:02.193Z,984.8
2017-08-23T01:28:04.281Z,984.8
2017-08-23T01:29:06.347Z,984.8
2017-08-23T01:30:08.742Z,984.8
2017-08-23T01:31:10.908Z,984.8
2017-08-23T01:32:13.114Z,984.8
2017-08-23T01:33:15.235Z,984.9
2017-08-23T01:34:17.336Z,984.8
2017-08-23T01:35:19.677Z,984.8
2017-08-23T01:36:21.744Z,984.8
2017-08-23T01:37:23.862Z,984.8
2017-08-23T01:38:25.959Z,984.9
2017-08-23T01:39:28.068Z,984.8
2017-08-23T01:40:30.566Z,984.8
2017-08-23T01:41:32.677Z,984.8
2017-08-23T01:42:35.139Z,984.9
2017-08-23T01:43:37.215Z,984.8
2017-08-23T01:44:39.343Z,984.8
2017-08-23T01:45:41.875Z,984.8
2017-08-23T01:46:43.940Z,984.7
2017-08-23T01:47:46.001Z,984.8
2017-08-23T01:48:48.129Z,984.8
2017-08-23T01:49:50.298Z,984.8
2017-08-23T01:50:52.610Z,984.8
2017-08-23T01:51:54.720Z,984.8
2017-08-23T01:52:56.753Z,984.8
2017-08-23T01:53:58.788Z,984.8
2017-08-23T01:55:00.853Z,984.8
2017-08-23T01:56:03.329Z,984.8
2017-08-23T01:57:05.354Z,984.8
2017-08-23T01:58:07.653Z,984.8
2017-08-23T01:59:09.953Z,984.8
2017-08-23T02:00:12.347Z,984.8
2017-08-23T02:01:14.902Z,984.8
2017-08-23T02:02:17.179Z,984.8
2017-08-23T02:03:19.474Z,984.7
2017-08-23T02:04:21.814Z,984.7
2017-08-23T02:05:24.082Z,984.7
2017-08-23T02:06:26.728Z,984.7
2017-08-23T02:07:29.019Z,984.7
2017-08-23T02:08:36.491Z,984.8
2017-08-23T02:09:38.541Z,984.7
2017-08-23T02:10:40.616Z,984.8
2017-08-23T02:11:43.068Z,984.7
2017-08-23T02:12:45.076Z,984.7
2017-08-23T02:13:47.219Z,984.8
2017-08-23T02:14:49.350Z,984.7
2017-08-23T02:15:51.519Z,984.7
2017-08-23T02:16:53.980Z,984.7
2017-08-23T02:17:56.024Z,984.7
2017-08-23T02:18:58.064Z,984.7
2017-08-23T02:20:00.093Z,984.7
2017-08-23T02:21:02.183Z,984.7
2017-08-23T02:22:04.527Z,984.7
2017-08-23T02:23:06.606Z,984.7
2017-08-23T02:24:08.691Z,984.7
2017-08-23T02:25:10.879Z,984.7
2017-08-23T02:26:12.963Z,984.7
2017-08-23T02:27:15.358Z,984.7
2017-08-23T02:28:17.382Z,984.7
2017-08-23T02:29:19.461Z,984.7
2017-08-23T02:30:21.611Z,984.6
2017-08-23T02:31:23.733Z,984.6
2017-08-23T02:32:26.253Z,984.6
2017-08-23T02:33:28.421Z,984.6
2017-08-23T02:34:30.523Z,984.6
2017-08-23T02:35:32.658Z,984.6
2017-08-23T02:36:34.712Z,984.5
2017-08-23T02:37:37.149Z,984.5
2017-08-23T02:38:39.202Z,984.6
2017-08-23T02:39:41.247Z,984.5
2017-08-23T02:40:43.330Z,984.5
2017-08-23T02:41:45.400Z,984.6
2017-08-23T02:42:47.793Z,984.6
2017-08-23T02:43:49.834Z,984.6
2017-08-23T02:44:51.906Z,984.5
2017-08-23T02:45:54.038Z,984.5
2017-08-23T02:46:56.125Z,984.5
2017-08-23T02:47:58.700Z,984.5
2017-08-23T02:49:00.753Z,984.5
2017-08-23T02:50:02.756Z,984.5
2017-08-23T02:51:04.857Z,984.5
2017-08-23T02:52:06.887Z,984.5
2017-08-23T02:53:09.232Z,984.5
2017-08-23T02:54:11.312Z,984.4
2017-08-23T02:55:13.389Z,984.5
2017-08-23T02:56:15.448Z,984.5
2017-08-23T02:57:17.536Z,984.4
2017-08-23T02:58:19.927Z,984.4
2017-08-23T02:59:22.037Z,984.4
2017-08-23T03:00:24.135Z,984.4
2017-08-23T03:01:26.184Z,984.4
2017-08-23T03:02:28.273Z,984.4
2017-08-23T03:03:30.838Z,984.4
2017-08-23T03:04:32.874Z,984.4
2017-08-23T03:05:34.932Z,984.4
2017-08-23T03:06:36.961Z,984.4
2017-08-23T03:07:38.990Z,984.4
2017-08-23T03:08:41.349Z,984.4
2017-08-23T03:09:43.432Z,984.4
2017-08-23T03:10:45.548Z,984.4
2017-08-23T03:11:47.577Z,984.4
2017-08-23T03:12:49.669Z,984.4
2017-08-23T03:13:52.087Z,984.4
2017-08-23T03:14:54.176Z,984.4
2017-08-23T03:15:56.199Z,984.4
2017-08-23T03:16:58.225Z,984.4
2017-08-23T03:18:00.259Z,984.4
2017-08-23T03:19:02.684Z,984.3
2017-08-23T03:20:04.761Z,984.3
2017-08-23T03:21:06.802Z,984.3
2017-08-23T03:22:08.899Z,984.3
2017-08-23T03:23:10.984Z,984.3
2017-08-23T03:24:13.389Z,984.4
2017-08-23T03:25:15.528Z,984.3
2017-08-23T03:26:17.561Z,984.4
2017-08-23T03:27:19.691Z,984.4
2017-08-23T03:28:21.736Z,984.3
2017-08-23T03:29:24.163Z,984.4
2017-08-23T03:30:26.257Z,984.4
2017-08-23T03:31:28.345Z,984.4
2017-08-23T03:32:30.417Z,984.4
2017-08-23T03:33:32.562Z,984.4
2017-08-23T03:34:34.966Z,984.4
2017-08-23T03:35:37.046Z,984.4
2017-08-23T03:36:39.441Z,984.3
2017-08-23T03:37:41.615Z,984.4
2017-08-23T03:38:43.715Z,984.4
2017-08-23T03:39:46.076Z,984.4
2017-08-23T03:40:48.209Z,984.4
2017-08-23T03:41:50.281Z,984.4
2017-08-23T03:42:52.305Z,984.4
2017-08-23T03:43:54.384Z,984.4
2017-08-23T03:44:56.866Z,984.4
2017-08-23T03:45:59.096Z,984.4
2017-08-23T03:47:01.245Z,984.4
2017-08-23T03:48:03.341Z,984.4
2017-08-23T03:49:05.387Z,984.4
2017-08-23T03:50:07.813Z,984.4
2017-08-23T03:51:09.942Z,984.4
2017-08-23T03:52:12.102Z,984.4
2017-08-23T03:53:14.177Z,984.5
2017-08-23T03:54:16.379Z,984.5
2017-08-23T03:55:18.817Z,984.5
2017-08-23T03:56:20.898Z,984.5
2017-08-23T03:57:23.007Z,984.4
2017-08-23T03:58:25.067Z,984.4
2017-08-23T03:59:27.280Z,984.4
2017-08-23T04:00:29.826Z,984.5
2017-08-23T04:01:31.930Z,984.4
2017-08-23T04:02:34.009Z,984.4
2017-08-23T04:03:36.060Z,984.4
2017-08-23T04:04:38.108Z,984.4
2017-08-23T04:05:40.649Z,984.4
2017-08-23T04:06:42.727Z,984.4
2017-08-23T04:07:44.842Z,984.5
2017-08-23T04:08:46.979Z,984.4
2017-08-23T04:09:49.102Z,984.4
2017-08-23T04:10:51.578Z,984.3
2017-08-23T04:11:53.671Z,984.4
2017-08-23T04:12:55.771Z,984.5
2017-08-23T04:13:57.873Z,984.4
2017-08-23T04:14:59.979Z,984.4
2017-08-23T04:16:02.270Z,984.4
2017-08-23T04:17:04.509Z,984.4
2017-08-23T04:18:06.666Z,984.4
2017-08-23T04:19:08.982Z,984.4
2017-08-23T04:20:11.092Z,984.4
2017-08-23T04:21:13.564Z,984.4
2017-08-23T04:22:15.650Z,984.4
2017-08-23T04:23:17.715Z,984.5
2017-08-23T04:24:19.819Z,984.5
2017-08-23T04:25:21.877Z,984.4
2017-08-23T04:26:24.292Z,984.4
2017-08-23T04:27:26.565Z,984.4
2017-08-23T04:28:28.702Z,984.4
2017-08-23T04:29:30.812Z,984.4
2017-08-23T04:30:33.039Z,984.4
2017-08-23T04:31:35.353Z,984.4
2017-08-23T04:32:37.457Z,984.4
2017-08-23T04:33:39.539Z,984.4
2017-08-23T04:34:41.644Z,984.4
2017-08-23T04:35:43.768Z,984.4
2017-08-23T04:36:46.209Z,984.4
2017-08-23T04:37:48.299Z,984.4
2017-08-23T04:38:50.372Z,984.4
2017-08-23T04:39:52.477Z,984.4
2017-08-23T04:40:54.592Z,984.5
2017-08-23T04:41:56.972Z,984.4
2017-08-23T04:42:59.042Z,984.4
2017-08-23T04:44:01.139Z,984.5
2017-08-23T04:45:03.183Z,984.5
2017-08-23T04:46:05.224Z,984.5
2017-08-23T04:47:07.614Z,984.4
2017-08-23T04:48:09.704Z,984.4
2017-08-23T04:49:11.798Z,984.4
2017-08-23T04:50:13.855Z,984.4
2017-08-23T04:51:15.938Z,984.5
2017-08-23T04:52:18.260Z,984.4
2017-08-23T04:53:20.339Z,984.4
2017-08-23T04:54:22.405Z,984.4
2017-08-23T04:55:24.630Z,984.4
2017-08-23T04:56:26.721Z,984.4
2017-08-23T04:57:29.093Z,984.4
2017-08-23T04:58:31.140Z,984.4
2017-08-23T04:59:33.243Z,984.4
2017-08-23T05:00:35.305Z,984.4
2017-08-23T05:01:37.321Z,984.4
2017-08-23T05:02:39.715Z,984.4
2017-08-23T05:03:41.845Z,984.4
2017-08-23T05:04:43.971Z,984.4
2017-08-23T05:05:46.054Z,984.4
2017-08-23T05:06:48.130Z,984.4
2017-08-23T05:07:50.469Z,984.4
2017-08-23T05:08:52.645Z,984.4
2017-08-23T05:09:54.691Z,984.4
2017-08-23T05:10:56.807Z,984.5
2017-08-23T05:11:58.842Z,984.5
2017-08-23T05:13:01.241Z,984.4
2017-08-23T05:14:03.370Z,984.4
2017-08-23T05:15:05.417Z,984.5
2017-08-23T05:16:07.477Z,984.4
2017-08-23T05:17:09.578Z,984.4
2017-08-23T05:18:11.997Z,984.5
2017-08-23T05:19:14.175Z,984.4
2017-08-23T05:20:16.315Z,984.5
2017-08-23T05:21:18.436Z,984.5
2017-08-23T05:22:20.477Z,984.5
2017-08-23T05:23:22.947Z,984.5
2017-08-23T05:24:25.037Z,984.4
2017-08-23T05:25:27.140Z,984.4
2017-08-23T05:26:29.212Z,984.5
2017-08-23T05:27:31.285Z,984.4
2017-08-23T05:28:33.852Z,984.4
2017-08-23T05:29:36.025Z,984.3
2017-08-23T05:30:38.165Z,984.4
2017-08-23T05:31:40.276Z,984.4
2017-08-23T05:32:42.388Z,984.4
2017-08-23T05:33:44.975Z,984.4
2017-08-23T05:34:47.127Z,984.4
2017-08-23T05:35:49.239Z,984.4
2017-08-23T05:36:51.339Z,984.4
2017-08-23T05:37:53.422Z,984.4
2017-08-23T05:38:55.893Z,984.5
2017-08-23T05:39:58.031Z,984.4
2017-08-23T05:41:00.217Z,984.4
2017-08-23T05:42:02.327Z,984.5
2017-08-23T05:43:04.478Z,984.4
2017-08-23T05:44:06.993Z,984.5
2017-08-23T05:45:09.022Z,984.5
2017-08-23T05:46:11.138Z,984.5
2017-08-23T05:47:13.220Z,984.5
2017-08-23T05:48:16.017Z,984.5
2017-08-23T05:49:18.409Z,984.4
2017-08-23T05:50:20.586Z,984.5
2017-08-23T05:51:22.714Z,984.5
2017-08-23T05:52:24.789Z,984.4
2017-08-23T05:53:26.885Z,984.4
2017-08-23T05:54:29.227Z,984.4
2017-08-23T05:55:31.303Z,984.4
2017-08-23T05:56:33.347Z,984.5
2017-08-23T05:57:35.404Z,984.5
2017-08-23T05:58:37.493Z,984.4
2017-08-23T05:59:39.921Z,984.5
2017-08-23T06:00:42.034Z,984.5
2017-08-23T06:01:44.161Z,984.4
2017-08-23T06:02:46.266Z,984.4
2017-08-23T06:03:48.323Z,984.4
2017-08-23T06:04:50.812Z,984.3
2017-08-23T06:05:52.987Z,984.3
2017-08-23T06:06:55.055Z,984.3
2017-08-23T06:07:57.128Z,984.3
2017-08-23T06:08:59.269Z,984.3
2017-08-23T06:10:01.783Z,984.3
2017-08-23T06:11:03.901Z,984.3
2017-08-23T06:12:06.037Z,984.3
2017-08-23T06:13:08.135Z,984.3
2017-08-23T06:14:10.218Z,984.3
2017-08-23T06:15:12.692Z,984.3
2017-08-23T06:16:14.782Z,984.3
2017-08-23T06:17:17.061Z,984.2
2017-08-23T06:18:19.204Z,984.3
2017-08-23T06:19:21.325Z,984.3
2017-08-23T06:20:23.793Z,984.2
2017-08-23T06:21:25.859Z,984.2
2017-08-23T06:22:27.949Z,984.2
2017-08-23T06:23:30.060Z,984.1
2017-08-23T06:24:32.205Z,984.2
2017-08-23T06:25:34.678Z,984.2
2017-08-23T06:26:36.736Z,984.2
2017-08-23T06:27:38.883Z,984.2
2017-08-23T06:28:41.010Z,984.2
2017-08-23T06:29:43.133Z,984.2
2017-08-23T06:30:45.546Z,984.2
2017-08-23T06:31:47.618Z,984.2
2017-08-23T06:32:49.772Z,984.1
2017-08-23T06:33:51.901Z,984.1
2017-08-23T06:34:54.061Z,984.2
2017-08-23T06:35:56.531Z,984.2
2017-08-23T06:36:58.722Z,984.1
2017-08-23T06:38:00.857Z,984.1
2017-08-23T06:39:03.014Z,984.1
2017-08-23T06:40:05.122Z,984.1
2017-08-23T06:41:07.602Z,984.1
2017-08-23T06:42:09.796Z,984.1
2017-08-23T06:43:11.957Z,984.1
2017-08-23T06:44:14.133Z,984.1
2017-08-23T06:45:16.396Z,984.2
2017-08-23T06:46:18.939Z,984.1
2017-08-23T06:47:21.085Z,984.1
2017-08-23T06:48:23.160Z,984.1
2017-08-23T06:49:25.329Z,984.1
2017-08-23T06:50:27.418Z,984.1
2017-08-23T06:51:29.782Z,984.1
2017-08-23T06:52:31.869Z,984.2
2017-08-23T06:53:34.105Z,984.1
2017-08-23T06:54:36.295Z,984.1
2017-08-23T06:55:38.498Z,984.1
2017-08-23T06:56:40.977Z,984.1
2017-08-23T06:57:43.144Z,984.1
2017-08-23T06:58:45.266Z,984.1
2017-08-23T06:59:47.294Z,984.1
2017-08-23T07:00:49.420Z,984.1
2017-08-23T07:01:51.783Z,984.1
2017-08-23T07:02:53.875Z,984
2017-08-23T07:03:56.029Z,984.1
2017-08-23T07:04:58.152Z,984.1
2017-08-23T07:06:00.315Z,984.1
2017-08-23T07:07:02.734Z,984.1
2017-08-23T07:08:04.869Z,984.1
2017-08-23T07:09:06.934Z,984.1
2017-08-23T07:10:09.076Z,984.1
2017-08-23T07:11:11.203Z,984.1
2017-08-23T07:12:13.682Z,984.1
2017-08-23T07:13:15.788Z,984.1
2017-08-23T07:14:17.978Z,984.1
2017-08-23T07:15:20.160Z,984.1
2017-08-23T07:16:22.363Z,984.2
2017-08-23T07:17:24.779Z,984.1
2017-08-23T07:18:26.954Z,984.2
2017-08-23T07:19:29.136Z,984.1
2017-08-23T07:20:31.236Z,984.2
2017-08-23T07:21:33.464Z,984.1
2017-08-23T07:22:35.887Z,984.2
2017-08-23T07:23:38.076Z,984.1
2017-08-23T07:24:40.168Z,984.2
2017-08-23T07:25:42.297Z,984.2
2017-08-23T07:26:44.413Z,984.1
2017-08-23T07:27:46.924Z,984.2
2017-08-23T07:28:49.037Z,984.2
2017-08-23T07:29:51.187Z,984.2
2017-08-23T07:30:53.356Z,984.2
2017-08-23T07:31:55.524Z,984.1
2017-08-23T07:32:57.952Z,984
2017-08-23T07:34:00.247Z,984.1
2017-08-23T07:35:02.386Z,984.1
2017-08-23T07:36:04.503Z,984.1
2017-08-23T07:37:06.649Z,984
2017-08-23T07:38:08.993Z,984.1
2017-08-23T07:39:12.158Z,984.1
2017-08-23T07:40:14.280Z,984.1
2017-08-23T07:41:16.974Z,984.1
2017-08-23T07:42:19.082Z,984.2
2017-08-23T07:43:21.730Z,984.2
2017-08-23T07:44:23.809Z,984.2
2017-08-23T07:45:26.314Z,984.2
2017-08-23T07:46:28.456Z,984.2
2017-08-23T07:47:30.555Z,984.2
2017-08-23T07:48:32.931Z,984.2
2017-08-23T07:49:35.166Z,984.1
2017-08-23T07:50:37.352Z,984.1
2017-08-23T07:51:39.700Z,984
2017-08-23T07:52:41.895Z,984.1
2017-08-23T07:53:44.282Z,984
2017-08-23T07:54:46.442Z,984.1
2017-08-23T07:55:48.545Z,984.1
2017-08-23T07:56:50.679Z,984.2
2017-08-23T07:57:53.092Z,984.1
2017-08-23T07:58:55.633Z,984.1
2017-08-23T07:59:57.791Z,984.1
2017-08-23T08:00:59.975Z,984.1
2017-08-23T08:02:02.172Z,984.1
2017-08-23T08:03:04.357Z,984.1
2017-08-23T08:04:06.892Z,984.1
2017-08-23T08:05:09.028Z,984.1
2017-08-23T08:06:11.190Z,984.1
2017-08-23T08:07:13.423Z,984.1
2017-08-23T08:08:15.576Z,984.1
2017-08-23T08:09:18.190Z,984.2
2017-08-23T08:10:20.267Z,984
2017-08-23T08:11:22.349Z,984.1
2017-08-23T08:12:24.473Z,984.1
2017-08-23T08:13:26.646Z,984
2017-08-23T08:14:29.188Z,984
2017-08-23T08:15:31.424Z,984
2017-08-23T08:16:33.541Z,984
2017-08-23T08:17:35.592Z,984
2017-08-23T08:18:37.688Z,984
2017-08-23T08:19:40.216Z,984
2017-08-23T08:20:42.310Z,984
2017-08-23T08:21:44.500Z,984
2017-08-23T08:22:46.658Z,983.9
2017-08-23T08:23:48.890Z,983.9
2017-08-23T08:24:51.286Z,984
2017-08-23T08:25:53.442Z,984
2017-08-23T08:26:55.844Z,984
2017-08-23T08:27:57.996Z,984
2017-08-23T08:29:00.077Z,984
2017-08-23T08:30:02.555Z,984
2017-08-23T08:31:04.717Z,983.9
2017-08-23T08:32:06.918Z,983.9
2017-08-23T08:33:09.069Z,984
2017-08-23T08:34:11.213Z,983.9
2017-08-23T08:35:13.637Z,983.9
2017-08-23T08:36:15.796Z,984
2017-08-23T08:37:17.934Z,984
2017-08-23T08:38:20.036Z,984
2017-08-23T08:39:22.199Z,984
2017-08-23T08:40:24.731Z,984
2017-08-23T08:41:26.809Z,984.1
2017-08-23T08:42:28.904Z,984
2017-08-23T08:43:31.016Z,984
2017-08-23T08:44:33.138Z,984
2017-08-23T08:45:35.565Z,984
2017-08-23T08:46:37.636Z,984
2017-08-23T08:47:39.751Z,984
2017-08-23T08:48:41.860Z,984
2017-08-23T08:49:44.076Z,984
2017-08-23T08:50:46.733Z,984
2017-08-23T08:51:48.958Z,984.1
2017-08-23T08:52:51.839Z,984.1
2017-08-23T08:53:53.979Z,984
2017-08-23T08:54:56.287Z,984
2017-08-23T08:55:58.708Z,984
2017-08-23T08:57:00.952Z,984
2017-08-23T08:58:03.044Z,984
2017-08-23T08:59:05.159Z,984
2017-08-23T09:00:07.401Z,984
2017-08-23T09:01:09.816Z,984
2017-08-23T09:02:11.948Z,984.1
2017-08-23T09:03:14.044Z,984
2017-08-23T09:04:16.141Z,984
2017-08-23T09:05:18.244Z,984
2017-08-23T09:06:20.734Z,984
2017-08-23T09:07:22.858Z,984
2017-08-23T09:08:24.988Z,984
2017-08-23T09:09:27.111Z,984
2017-08-23T09:10:29.254Z,984
2017-08-23T09:11:31.679Z,984
2017-08-23T09:12:33.785Z,983.9
2017-08-23T09:13:35.888Z,984
2017-08-23T09:14:37.956Z,983.9
2017-08-23T09:15:40.051Z,984
2017-08-23T09:16:42.634Z,983.9
2017-08-23T09:17:44.745Z,983.9
2017-08-23T09:18:46.921Z,983.9
2017-08-23T09:19:49.024Z,983.9
2017-08-23T09:20:51.115Z,983.9
2017-08-23T09:21:53.553Z,983.9
2017-08-23T09:22:55.698Z,983.9
2017-08-23T09:23:57.921Z,983.9
2017-08-23T09:25:00.033Z,983.9
2017-08-23T09:26:02.155Z,984
2017-08-23T09:27:04.611Z,983.9
2017-08-23T09:28:06.747Z,984
2017-08-23T09:29:08.914Z,983.9
2017-08-23T09:30:11.055Z,984
2017-08-23T09:31:13.245Z,983.9
2017-08-23T09:32:15.846Z,983.9
2017-08-23T09:33:18.079Z,984
2017-08-23T09:34:20.223Z,983.9
2017-08-23T09:35:22.541Z,983.9
2017-08-23T09:36:24.708Z,983.9
2017-08-23T09:37:27.186Z,983.8
2017-08-23T09:38:29.316Z,983.9
2017-08-23T09:39:31.384Z,983.9
2017-08-23T09:40:33.490Z,983.9
2017-08-23T09:41:35.591Z,983.8
2017-08-23T09:42:38.012Z,983.9
2017-08-23T09:43:40.061Z,983.8
2017-08-23T09:44:42.157Z,983.8
2017-08-23T09:45:44.414Z,983.8
2017-08-23T09:46:46.534Z,983.9
2017-08-23T09:47:48.894Z,983.8
2017-08-23T09:48:51.129Z,983.8
2017-08-23T09:49:53.162Z,983.8
2017-08-23T09:50:55.258Z,983.8
2017-08-23T09:51:58.131Z,983.8
2017-08-23T09:53:00.536Z,983.7
2017-08-23T09:54:02.623Z,983.8
2017-08-23T09:55:04.829Z,983.7
2017-08-23T09:56:06.933Z,983.7
2017-08-23T09:57:09.021Z,983.8
2017-08-23T09:58:11.527Z,983.8
2017-08-23T09:59:13.587Z,983.8
2017-08-23T10:00:15.692Z,983.8
2017-08-23T10:01:17.861Z,983.8
2017-08-23T10:02:19.936Z,983.8
2017-08-23T10:03:22.381Z,983.7
2017-08-23T10:04:24.443Z,983.7
2017-08-23T10:05:26.517Z,983.7
2017-08-23T10:06:28.570Z,983.7
2017-08-23T10:07:30.703Z,983.7
2017-08-23T10:08:33.195Z,983.6
2017-08-23T10:09:35.286Z,983.6
2017-08-23T10:10:37.378Z,983.7
2017-08-23T10:11:39.419Z,983.7
2017-08-23T10:12:41.529Z,983.7
2017-08-23T10:13:44.223Z,983.8
2017-08-23T10:14:46.339Z,983.8
2017-08-23T10:15:48.428Z,983.7
2017-08-23T10:16:50.476Z,983.7
2017-08-23T10:17:52.569Z,983.7
2017-08-23T10:18:54.982Z,983.7
2017-08-23T10:19:57.094Z,983.8
2017-08-23T10:20:59.221Z,983.8
2017-08-23T10:22:01.351Z,983.7
2017-08-23T10:23:03.499Z,983.8
2017-08-23T10:24:05.918Z,983.7
2017-08-23T10:25:08.088Z,983.6
2017-08-23T10:26:10.235Z,983.7
2017-08-23T10:27:12.313Z,983.7
2017-08-23T10:28:14.422Z,983.7
2017-08-23T10:29:16.892Z,983.7
2017-08-23T10:30:19.001Z,983.7
2017-08-23T10:31:21.069Z,983.7
2017-08-23T10:32:23.209Z,983.7
2017-08-23T10:33:25.288Z,983.7
2017-08-23T10:34:27.742Z,983.7
2017-08-23T10:35:29.967Z,983.7
2017-08-23T10:36:32.152Z,983.7
2017-08-23T10:37:34.321Z,983.7
2017-08-23T10:38:36.443Z,983.7
2017-08-23T10:39:38.856Z,983.6
2017-08-23T10:40:41.067Z,983.6
2017-08-23T10:41:43.299Z,983.6
2017-08-23T10:42:45.664Z,983.6
2017-08-23T10:43:47.878Z,983.6
2017-08-23T10:44:50.488Z,983.6
2017-08-23T10:45:52.697Z,983.6
2017-08-23T10:46:54.914Z,983.6
2017-08-23T10:47:56.981Z,983.6
2017-08-23T10:48:59.105Z,983.5
2017-08-23T10:50:01.521Z,983.5
2017-08-23T10:51:03.623Z,983.5
2017-08-23T10:52:05.766Z,983.5
2017-08-23T10:53:07.900Z,983.5
2017-08-23T10:54:09.961Z,983.4
2017-08-23T10:55:12.522Z,983.5
2017-08-23T10:56:14.631Z,983.4
2017-08-23T10:57:16.772Z,983.4
2017-08-23T10:58:18.884Z,983.5
2017-08-23T10:59:21.034Z,983.6
2017-08-23T11:00:23.441Z,983.6
2017-08-23T11:01:25.528Z,983.5
2017-08-23T11:02:27.691Z,983.5
2017-08-23T11:03:29.807Z,983.5
2017-08-23T11:04:31.861Z,983.5
2017-08-23T11:05:34.295Z,983.4
2017-08-23T11:06:36.383Z,983.4
2017-08-23T11:07:38.471Z,983.4
2017-08-23T11:08:40.552Z,983.4
2017-08-23T11:09:42.641Z,983.4
2017-08-23T11:10:45.110Z,983.4
2017-08-23T11:11:47.143Z,983.4
2017-08-23T11:12:49.247Z,983.3
2017-08-23T11:13:51.343Z,983.3
2017-08-23T11:14:53.403Z,983.3
2017-08-23T11:15:55.840Z,983.3
2017-08-23T11:16:57.951Z,983.3
2017-08-23T11:18:00.039Z,983.3
2017-08-23T11:19:02.081Z,983.2
2017-08-23T11:20:04.186Z,983.2
2017-08-23T11:21:06.743Z,983.2
2017-08-23T11:22:08.867Z,983.4
2017-08-23T11:23:10.960Z,983.2
2017-08-23T11:24:13.260Z,983.2
2017-08-23T11:25:15.432Z,983.2
2017-08-23T11:26:17.814Z,983.3
2017-08-23T11:27:19.989Z,983.2
2017-08-23T11:28:22.103Z,983.3
2017-08-23T11:29:24.390Z,983.3
2017-08-23T11:30:26.707Z,983.2
2017-08-23T11:31:29.185Z,983.2
2017-08-23T11:32:31.397Z,983.3
2017-08-23T11:33:33.537Z,983.1
2017-08-23T11:34:35.699Z,983.2
2017-08-23T11:35:37.848Z,983.2
2017-08-23T11:36:40.339Z,983.2
2017-08-23T11:37:42.418Z,983.2
2017-08-23T11:38:44.671Z,983.1
2017-08-23T11:39:46.854Z,983.1
2017-08-23T11:40:49.366Z,983.1
2017-08-23T11:41:51.833Z,983.1
2017-08-23T11:42:53.968Z,983.1
2017-08-23T11:43:56.330Z,983.1
2017-08-23T11:44:58.755Z,983.1
2017-08-23T11:46:00.812Z,983
2017-08-23T11:47:03.283Z,983
2017-08-23T11:48:05.457Z,983.1
2017-08-23T11:49:07.676Z,983
2017-08-23T11:50:09.866Z,983
2017-08-23T11:51:11.918Z,982.9
2017-08-23T11:52:14.410Z,983
2017-08-23T11:53:16.534Z,983
2017-08-23T11:54:18.659Z,983
2017-08-23T11:55:20.794Z,983
2017-08-23T11:56:22.961Z,983
2017-08-23T11:57:25.430Z,983
2017-08-23T11:58:27.568Z,982.9
2017-08-23T11:59:29.651Z,983
2017-08-23T12:00:31.782Z,982.9
2017-08-23T12:01:33.873Z,982.9
2017-08-23T12:02:36.244Z,982.9
2017-08-23T12:03:38.653Z,983
2017-08-23T12:04:40.792Z,982.9
2017-08-23T12:05:42.977Z,982.9
2017-08-23T12:06:45.070Z,982.9
2017-08-23T12:07:47.433Z,982.8
2017-08-23T12:08:49.586Z,982.8
2017-08-23T12:09:51.993Z,982.8
2017-08-23T12:10:54.189Z,982.8
2017-08-23T12:11:56.250Z,982.8
2017-08-23T12:12:58.670Z,982.7
2017-08-23T12:14:00.730Z,982.7
2017-08-23T12:15:03.367Z,982.7
2017-08-23T12:16:05.547Z,982.8
2017-08-23T12:17:07.759Z,982.8
2017-08-23T12:18:10.204Z,982.7
2017-08-23T12:19:12.228Z,982.8
2017-08-23T12:20:14.385Z,982.7
2017-08-23T12:21:16.484Z,982.7
2017-08-23T12:22:18.660Z,982.7
2017-08-23T12:23:21.044Z,982.8
2017-08-23T12:24:23.180Z,982.8
2017-08-23T12:25:25.343Z,982.8
2017-08-23T12:26:27.515Z,982.7
2017-08-23T12:27:29.727Z,982.7
2017-08-23T12:28:32.324Z,982.7
2017-08-23T12:29:34.433Z,982.7
2017-08-23T12:30:37.057Z,982.6
2017-08-23T12:31:39.141Z,982.7
2017-08-23T12:32:41.307Z,982.7
2017-08-23T12:33:43.835Z,982.6
2017-08-23T12:34:46.007Z,982.6
2017-08-23T12:35:48.735Z,982.6
2017-08-23T12:36:50.815Z,982.7
2017-08-23T12:37:52.946Z,982.7
2017-08-23T12:38:55.387Z,982.7
2017-08-23T12:39:57.528Z,982.7
2017-08-23T12:40:59.656Z,982.7
2017-08-23T12:42:01.794Z,982.7
2017-08-23T12:43:03.942Z,982.7
2017-08-23T12:44:06.423Z,982.7
2017-08-23T12:45:09.302Z,982.6
2017-08-23T12:46:11.417Z,982.6
2017-08-23T12:47:13.503Z,982.7
2017-08-23T12:48:15.593Z,982.6
2017-08-23T12:49:17.985Z,982.6
2017-08-23T12:50:20.024Z,982.6
2017-08-23T12:51:22.156Z,982.7
2017-08-23T12:52:24.268Z,982.7
2017-08-23T12:53:26.333Z,982.7
2017-08-23T12:54:28.758Z,982.6
2017-08-23T12:55:30.867Z,982.7
2017-08-23T12:56:32.987Z,982.7
2017-08-23T12:57:35.326Z,982.6
2017-08-23T12:58:37.421Z,982.7
2017-08-23T12:59:39.918Z,982.7
2017-08-23T13:00:42.096Z,982.7
2017-08-23T13:01:44.169Z,982.6
2017-08-23T13:02:46.252Z,982.6
2017-08-23T13:03:48.367Z,982.7
2017-08-23T13:04:50.839Z,982.6
2017-08-23T13:05:52.967Z,982.6
2017-08-23T13:06:55.080Z,982.6
2017-08-23T13:07:57.180Z,982.5
2017-08-23T13:08:59.293Z,982.6
2017-08-23T13:10:01.753Z,982.6
2017-08-23T13:11:03.877Z,982.6
2017-08-23T13:12:06.052Z,982.6
2017-08-23T13:13:08.214Z,982.5
2017-08-23T13:14:10.321Z,982.6
2017-08-23T13:15:12.710Z,982.6
2017-08-23T13:16:14.781Z,982.7
2017-08-23T13:17:16.926Z,982.6
2017-08-23T13:18:19.043Z,982.6
2017-08-23T13:19:21.121Z,982.7
2017-08-23T13:20:23.589Z,982.6
2017-08-23T13:21:25.789Z,982.6
2017-08-23T13:22:28.777Z,982.6
2017-08-23T13:23:30.926Z,982.5
2017-08-23T13:24:33.141Z,982.5
2017-08-23T13:25:35.657Z,982.5
2017-08-23T13:26:37.741Z,982.5